Pagina principale
METAR-TAF:

METAR-TAF

Aeroporti :

Aeroporto di Gran Canaria

Gran Canaria, Spagna

latitudine: 27-56N, longitudine: 015-23W, altezza: 23 m

Osservazione

Il bollettino è stato emesso 16 minuti fa, alle 05:30 UTC
Vento 4 kt da ovest
Temperature 15°C
Umidità 82%
Pressione 1019 hPa
Visibilità 10 km o più
Poco nuvoloso ad un'altezza di 2000 ft

METAR: GCLP 210530Z 26004KT 9999 FEW020 15/12 Q1019 NOSIG

Ora: 05:46 (05:46 UTC)

Previsione

Il bollettino è stato emesso 3 ore e 46 minuti fa, alle 02:00 UTC
Previsione valida dal 21 alle 03 UTC al 22 alle 03 UTC
Vento 5 kt da ovest/nord-ovest
Visibilità 10 km o più
Nubi sparse ad un'altezza di 2500 ft
Evoluzione graduale
dal 21 alle 09 UTC al 21 alle 11 UTC
Vento 10 kt da sud-est
Evoluzione graduale
dal 21 alle 19 UTC al 21 alle 21 UTC
Vento 5 kt da direzioni variabili

TAF: GCLP 210200Z 2103/2203 30005KT 9999 SCT025 TX23/2114Z TN15/2106Z BECMG 2109/2111 13010KT BECMG 2119/2121 VRB05KT

Osservazioni e previsioni meteorologiche di più di 4000 aeroporti (messaggi METAR e TAF).

Le stazioni disponibili sono rappresentate dai dischi gialli e rossi sulla carta.

Puntare il mouse per vedere il nome della stazione.

Clicca sopra per visualizzare le osservazioni e previsioni meteorologiche.

Per cambiare la mappa : fare clic sui pulsanti verdi con una croce nera per ingrandire, il pulsante verde con un trattino per diminuire, o sulla freccia verde per le mappe adiacenti.


METAR-TAF: